Jump to content


SOUTHWEST AIRLINES FLIGHT WN294 FLOWN ON 08-11-2017 BY CAPTAIN TYLER HANUS

Pilot StatsCaptain Tyler Hanus (LDP525) • 239.4 total hours • 51 total flights [View Logbook]
FLIGHT DETAILS
StatusReceived and approved on 2017-08-10 at 21:08:50
Origin AirportMinneapolis-St Paul Intl (KMSP) • Minneapolis, Minnesota, United States (841 feet MSL)
Filed Flight PlanKMSP GEP J36 ODI J30 BRIBE J90 OBK KMDW
Destination AirportChicago Midway Intl (KMDW) • Chicago, Illinois, United States (620 feet MSL)
Alternate AirportNone Filed
AirlineSouthwest Airlines
AircraftBoeing 737-800 | Winglets (73H / B737-800)
FS Aircraft UsedBoeing 737-8H4NGX Southwest Airlines (Warrior One) Winglets
Cruising AltitudeFL310
Distance Flown303 nautical miles
Passengers Onboard115 passengers (70.99% full)
DEPARTURE DETAILS
Time Out18:40:55
Taxi Data134,463 lbs total with 13,676 lbs of fuel onboard
Takeoff Data19:02:00 (21 minutes after leaving gate/ramp) • 133,827 lbs total • 10° pitch at 153 knots
Departure METARKMSP 102253Z 36009KT 10SM FEW032 SCT060 SCT095 22/16 A3002 RMK AO2 RAB2156E34 SLP161 TCU DSNT S P0000 T02220156
ARRIVAL DETAILS
Landing Data20:04:02 • 126,411 lbs total • 4° pitch doing 130 knots at a rate of -702.82 feet/minute with 5,298 lbs of fuel onboard
Time In20:11:05 (7 minutes after landing)
Ramp Weight126,085 lbs total
Total Fuel Used8,378 lbs
Total Block Time01:28:44 (1.5 hours) while 28 minutes were spent on the ground
Arrival METARKMDW 110053Z 33006KT 10SM FEW050 SCT065 SCT110 BKN180 BKN250 24/17 A2998 RMK AO2 LTG DSNT NE AND E SLP143 OCNL LTGICCG DSNT E CB DSNT E T02440172
MISCELLANEOUS DETAILS
LiveDISPATCH Version4.8.3.1
FS Version
FSUIPC Version4.96
OS VersionWindows 7 32-bit
Screen Resolution1360 x 768
Pilot's CommentsNo Comments Reported
FLIGHT MAP